sensor_id;sensor_type;location;lat;lon;timestamp;P1;durP1;ratioP1;P2;durP2;ratioP2
32918;SDS011;19280;42.646;21.150;2023-01-15T00:00:46;71.15;;;39.83;;
32918;SDS011;19280;42.646;21.150;2023-01-15T00:03:12;80.50;;;45.78;;
32918;SDS011;19280;42.646;21.150;2023-01-15T00:05:38;74.40;;;38.40;;
32918;SDS011;19280;42.646;21.150;2023-01-15T00:08:04;69.63;;;37.65;;
32918;SDS011;19280;42.646;21.150;2023-01-15T00:10:30;71.65;;;41.63;;
32918;SDS011;19280;42.646;21.150;2023-01-15T00:12:56;74.25;;;42.78;;
32918;SDS011;19280;42.646;21.150;2023-01-15T00:15:22;68.13;;;36.42;;
32918;SDS011;19280;42.646;21.150;2023-01-15T00:17:48;71.85;;;39.50;;
32918;SDS011;19280;42.646;21.150;2023-01-15T00:20:14;71.85;;;41.65;;
32918;SDS011;19280;42.646;21.150;2023-01-15T00:22:40;85.00;;;46.75;;
32918;SDS011;19280;42.646;21.150;2023-01-15T00:25:08;73.03;;;43.08;;
32918;SDS011;19280;42.646;21.150;2023-01-15T00:27:53;66.57;;;38.95;;
32918;SDS011;19280;42.646;21.150;2023-01-15T00:30:19;69.18;;;39.05;;
32918;SDS011;19280;42.646;21.150;2023-01-15T00:32:45;65.82;;;38.55;;
32918;SDS011;19280;42.646;21.150;2023-01-15T00:35:21;62.72;;;36.08;;
32918;SDS011;19280;42.646;21.150;2023-01-15T00:37:47;62.58;;;36.67;;
32918;SDS011;19280;42.646;21.150;2023-01-15T00:40:14;62.17;;;33.80;;
32918;SDS011;19280;42.646;21.150;2023-01-15T00:42:41;63.28;;;35.10;;
32918;SDS011;19280;42.646;21.150;2023-01-15T00:45:07;68.72;;;38.20;;
32918;SDS011;19280;42.646;21.150;2023-01-15T00:47:43;60.47;;;34.38;;
32918;SDS011;19280;42.646;21.150;2023-01-15T00:50:13;48.55;;;29.80;;
32918;SDS011;19280;42.646;21.150;2023-01-15T00:52:39;54.30;;;31.73;;
32918;SDS011;19280;42.646;21.150;2023-01-15T00:55:06;58.42;;;33.45;;
32918;SDS011;19280;42.646;21.150;2023-01-15T00:57:32;60.00;;;34.28;;
32918;SDS011;19280;42.646;21.150;2023-01-15T00:59:58;59.40;;;31.70;;
32918;SDS011;19280;42.646;21.150;2023-01-15T01:02:24;54.10;;;30.67;;
32918;SDS011;19280;42.646;21.150;2023-01-15T01:04:50;56.00;;;31.95;;
32918;SDS011;19280;42.646;21.150;2023-01-15T01:07:16;53.22;;;32.67;;
32918;SDS011;19280;42.646;21.150;2023-01-15T01:09:42;48.33;;;29.23;;
32918;SDS011;19280;42.646;21.150;2023-01-15T01:12:08;54.33;;;31.90;;
32918;SDS011;19280;42.646;21.150;2023-01-15T01:14:35;65.63;;;35.17;;
32918;SDS011;19280;42.646;21.150;2023-01-15T01:17:01;46.05;;;26.55;;
32918;SDS011;19280;42.646;21.150;2023-01-15T01:19:27;58.60;;;32.85;;
32918;SDS011;19280;42.646;21.150;2023-01-15T01:21:53;51.65;;;29.40;;
32918;SDS011;19280;42.646;21.150;2023-01-15T01:24:20;54.47;;;29.38;;
32918;SDS011;19280;42.646;21.150;2023-01-15T01:26:47;48.72;;;28.63;;
32918;SDS011;19280;42.646;21.150;2023-01-15T01:29:16;54.30;;;31.23;;
32918;SDS011;19280;42.646;21.150;2023-01-15T01:31:43;46.08;;;27.33;;
32918;SDS011;19280;42.646;21.150;2023-01-15T01:34:09;51.60;;;30.45;;
32918;SDS011;19280;42.646;21.150;2023-01-15T01:36:36;47.42;;;27.23;;
32918;SDS011;19280;42.646;21.150;2023-01-15T01:39:03;46.08;;;27.13;;
32918;SDS011;19280;42.646;21.150;2023-01-15T01:41:29;53.97;;;30.58;;
32918;SDS011;19280;42.646;21.150;2023-01-15T01:43:56;45.28;;;26.15;;
32918;SDS011;19280;42.646;21.150;2023-01-15T01:46:23;45.78;;;26.77;;
32918;SDS011;19280;42.646;21.150;2023-01-15T01:48:53;45.60;;;26.67;;
32918;SDS011;19280;42.646;21.150;2023-01-15T01:51:21;55.38;;;29.35;;
32918;SDS011;19280;42.646;21.150;2023-01-15T01:53:50;36.38;;;20.92;;
32918;SDS011;19280;42.646;21.150;2023-01-15T01:56:16;44.63;;;27.48;;
32918;SDS011;19280;42.646;21.150;2023-01-15T01:58:43;44.30;;;26.15;;
32918;SDS011;19280;42.646;21.150;2023-01-15T02:01:10;59.17;;;30.10;;
32918;SDS011;19280;42.646;21.150;2023-01-15T02:03:36;52.50;;;29.58;;
32918;SDS011;19280;42.646;21.150;2023-01-15T02:06:04;52.60;;;28.58;;
32918;SDS011;19280;42.646;21.150;2023-01-15T02:08:32;47.58;;;27.70;;
32918;SDS011;19280;42.646;21.150;2023-01-15T02:10:59;36.58;;;23.58;;
32918;SDS011;19280;42.646;21.150;2023-01-15T02:13:27;34.20;;;20.98;;
32918;SDS011;19280;42.646;21.150;2023-01-15T02:16:04;42.47;;;22.95;;
32918;SDS011;19280;42.646;21.150;2023-01-15T02:18:34;39.70;;;22.65;;
32918;SDS011;19280;42.646;21.150;2023-01-15T02:21:06;49.53;;;26.73;;
32918;SDS011;19280;42.646;21.150;2023-01-15T02:28:48;49.42;;;26.63;;
32918;SDS011;19280;42.646;21.150;2023-01-15T02:31:18;46.22;;;26.10;;
32918;SDS011;19280;42.646;21.150;2023-01-15T02:33:50;38.88;;;22.85;;
32918;SDS011;19280;42.646;21.150;2023-01-15T02:36:21;36.90;;;20.98;;
32918;SDS011;19280;42.646;21.150;2023-01-15T02:38:49;42.03;;;24.50;;
32918;SDS011;19280;42.646;21.150;2023-01-15T02:41:17;45.72;;;25.80;;
32918;SDS011;19280;42.646;21.150;2023-01-15T02:43:45;50.30;;;27.45;;
32918;SDS011;19280;42.646;21.150;2023-01-15T02:46:12;49.13;;;29.17;;
32918;SDS011;19280;42.646;21.150;2023-01-15T02:48:39;50.33;;;28.38;;
32918;SDS011;19280;42.646;21.150;2023-01-15T02:51:13;50.67;;;28.80;;
32918;SDS011;19280;42.646;21.150;2023-01-15T02:53:40;54.05;;;30.23;;
32918;SDS011;19280;42.646;21.150;2023-01-15T02:56:11;52.53;;;29.50;;
32918;SDS011;19280;42.646;21.150;2023-01-15T02:58:39;50.35;;;30.38;;
32918;SDS011;19280;42.646;21.150;2023-01-15T03:01:17;52.85;;;31.45;;
32918;SDS011;19280;42.646;21.150;2023-01-15T03:03:47;54.92;;;32.22;;
32918;SDS011;19280;42.646;21.150;2023-01-15T03:08:40;52.60;;;31.70;;
32918;SDS011;19280;42.646;21.150;2023-01-15T03:11:08;54.42;;;33.10;;
32918;SDS011;19280;42.646;21.150;2023-01-15T03:13:51;65.60;;;35.33;;
32918;SDS011;19280;42.646;21.150;2023-01-15T03:16:23;63.97;;;36.20;;
32918;SDS011;19280;42.646;21.150;2023-01-15T03:21:44;61.08;;;35.70;;
32918;SDS011;19280;42.646;21.150;2023-01-15T03:24:12;65.80;;;37.72;;
32918;SDS011;19280;42.646;21.150;2023-01-15T03:26:39;61.50;;;35.72;;
32918;SDS011;19280;42.646;21.150;2023-01-15T03:29:06;66.40;;;37.88;;
32918;SDS011;19280;42.646;21.150;2023-01-15T03:31:33;65.65;;;38.60;;
32918;SDS011;19280;42.646;21.150;2023-01-15T03:34:00;76.45;;;42.85;;
32918;SDS011;19280;42.646;21.150;2023-01-15T03:36:26;74.20;;;41.40;;
32918;SDS011;19280;42.646;21.150;2023-01-15T03:38:52;71.82;;;40.40;;
32918;SDS011;19280;42.646;21.150;2023-01-15T03:49:00;68.18;;;38.40;;
32918;SDS011;19280;42.646;21.150;2023-01-15T03:54:01;65.32;;;39.50;;
32918;SDS011;19280;42.646;21.150;2023-01-15T03:56:35;70.13;;;41.65;;
32918;SDS011;19280;42.646;21.150;2023-01-15T03:59:12;71.47;;;42.35;;
32918;SDS011;19280;42.646;21.150;2023-01-15T04:01:41;70.90;;;42.90;;
32918;SDS011;19280;42.646;21.150;2023-01-15T04:04:09;67.05;;;39.85;;
32918;SDS011;19280;42.646;21.150;2023-01-15T04:06:37;76.55;;;43.15;;
32918;SDS011;19280;42.646;21.150;2023-01-15T04:09:05;82.95;;;46.47;;
32918;SDS011;19280;42.646;21.150;2023-01-15T04:11:32;96.32;;;52.15;;
32918;SDS011;19280;42.646;21.150;2023-01-15T04:13:58;100.13;;;54.75;;
32918;SDS011;19280;42.646;21.150;2023-01-15T04:16:26;79.78;;;43.45;;
32918;SDS011;19280;42.646;21.150;2023-01-15T04:18:52;84.28;;;46.60;;
32918;SDS011;19280;42.646;21.150;2023-01-15T04:21:18;73.03;;;40.33;;
32918;SDS011;19280;42.646;21.150;2023-01-15T04:23:45;78.10;;;42.47;;
32918;SDS011;19280;42.646;21.150;2023-01-15T04:26:11;59.53;;;31.30;;
32918;SDS011;19280;42.646;21.150;2023-01-15T04:28:37;66.88;;;35.50;;
32918;SDS011;19280;42.646;21.150;2023-01-15T04:31:04;54.00;;;30.23;;
32918;SDS011;19280;42.646;21.150;2023-01-15T04:33:30;64.35;;;34.80;;
32918;SDS011;19280;42.646;21.150;2023-01-15T04:35:59;50.20;;;29.85;;
32918;SDS011;19280;42.646;21.150;2023-01-15T04:38:26;46.47;;;26.30;;
32918;SDS011;19280;42.646;21.150;2023-01-15T04:40:52;46.50;;;25.48;;
32918;SDS011;19280;42.646;21.150;2023-01-15T04:43:36;42.35;;;23.88;;
32918;SDS011;19280;42.646;21.150;2023-01-15T04:46:24;45.17;;;24.92;;
32918;SDS011;19280;42.646;21.150;2023-01-15T04:48:50;38.95;;;21.50;;
32918;SDS011;19280;42.646;21.150;2023-01-15T04:51:17;43.55;;;25.38;;
32918;SDS011;19280;42.646;21.150;2023-01-15T04:53:43;42.92;;;23.42;;
32918;SDS011;19280;42.646;21.150;2023-01-15T04:56:09;38.45;;;22.05;;
32918;SDS011;19280;42.646;21.150;2023-01-15T04:58:35;39.97;;;23.50;;
32918;SDS011;19280;42.646;21.150;2023-01-15T05:01:02;40.83;;;23.27;;
32918;SDS011;19280;42.646;21.150;2023-01-15T05:03:30;36.40;;;20.42;;
32918;SDS011;19280;42.646;21.150;2023-01-15T05:06:00;37.58;;;20.15;;
32918;SDS011;19280;42.646;21.150;2023-01-15T05:08:26;35.58;;;18.83;;
32918;SDS011;19280;42.646;21.150;2023-01-15T05:10:52;35.80;;;18.95;;
32918;SDS011;19280;42.646;21.150;2023-01-15T05:13:18;34.45;;;18.15;;
32918;SDS011;19280;42.646;21.150;2023-01-15T05:15:45;35.92;;;19.60;;
32918;SDS011;19280;42.646;21.150;2023-01-15T05:18:12;42.25;;;21.85;;
32918;SDS011;19280;42.646;21.150;2023-01-15T05:20:42;40.90;;;23.02;;
32918;SDS011;19280;42.646;21.150;2023-01-15T05:23:08;42.05;;;22.63;;
32918;SDS011;19280;42.646;21.150;2023-01-15T05:25:37;39.13;;;22.30;;
32918;SDS011;19280;42.646;21.150;2023-01-15T05:28:03;32.97;;;18.98;;
32918;SDS011;19280;42.646;21.150;2023-01-15T05:30:29;40.25;;;21.63;;
32918;SDS011;19280;42.646;21.150;2023-01-15T05:32:56;37.03;;;21.27;;
32918;SDS011;19280;42.646;21.150;2023-01-15T05:35:22;38.10;;;21.73;;
32918;SDS011;19280;42.646;21.150;2023-01-15T05:37:48;41.22;;;23.45;;
32918;SDS011;19280;42.646;21.150;2023-01-15T05:40:14;38.67;;;22.02;;
32918;SDS011;19280;42.646;21.150;2023-01-15T05:42:40;38.40;;;21.45;;
32918;SDS011;19280;42.646;21.150;2023-01-15T05:45:06;38.72;;;22.50;;
32918;SDS011;19280;42.646;21.150;2023-01-15T05:47:32;37.60;;;21.13;;
32918;SDS011;19280;42.646;21.150;2023-01-15T05:49:59;37.05;;;20.30;;
32918;SDS011;19280;42.646;21.150;2023-01-15T05:52:25;35.08;;;20.77;;
32918;SDS011;19280;42.646;21.150;2023-01-15T05:54:51;35.05;;;19.42;;
32918;SDS011;19280;42.646;21.150;2023-01-15T05:57:17;29.42;;;16.17;;
32918;SDS011;19280;42.646;21.150;2023-01-15T05:59:44;27.65;;;16.35;;
32918;SDS011;19280;42.646;21.150;2023-01-15T06:02:11;29.50;;;17.20;;
32918;SDS011;19280;42.646;21.150;2023-01-15T06:04:37;31.55;;;17.23;;
32918;SDS011;19280;42.646;21.150;2023-01-15T06:07:03;28.40;;;17.90;;
32918;SDS011;19280;42.646;21.150;2023-01-15T06:09:29;34.60;;;19.77;;
32918;SDS011;19280;42.646;21.150;2023-01-15T06:11:55;38.53;;;22.38;;
32918;SDS011;19280;42.646;21.150;2023-01-15T06:14:22;47.58;;;26.92;;
32918;SDS011;19280;42.646;21.150;2023-01-15T06:16:48;61.90;;;28.98;;
32918;SDS011;19280;42.646;21.150;2023-01-15T06:19:15;82.57;;;35.25;;
32918;SDS011;19280;42.646;21.150;2023-01-15T06:21:41;60.80;;;30.70;;
32918;SDS011;19280;42.646;21.150;2023-01-15T06:24:07;63.25;;;31.67;;
32918;SDS011;19280;42.646;21.150;2023-01-15T06:26:33;55.83;;;30.20;;
32918;SDS011;19280;42.646;21.150;2023-01-15T06:28:59;56.65;;;30.92;;
32918;SDS011;19280;42.646;21.150;2023-01-15T06:31:25;56.72;;;30.27;;
32918;SDS011;19280;42.646;21.150;2023-01-15T06:33:52;55.53;;;29.77;;
32918;SDS011;19280;42.646;21.150;2023-01-15T06:36:19;51.63;;;29.58;;
32918;SDS011;19280;42.646;21.150;2023-01-15T06:38:46;54.28;;;30.77;;
32918;SDS011;19280;42.646;21.150;2023-01-15T06:41:13;58.17;;;30.25;;
32918;SDS011;19280;42.646;21.150;2023-01-15T06:43:58;58.28;;;28.75;;
32918;SDS011;19280;42.646;21.150;2023-01-15T06:46:47;51.50;;;28.73;;
32918;SDS011;19280;42.646;21.150;2023-01-15T06:49:32;60.03;;;32.13;;
32918;SDS011;19280;42.646;21.150;2023-01-15T06:51:58;53.42;;;29.42;;
32918;SDS011;19280;42.646;21.150;2023-01-15T06:54:24;50.22;;;28.77;;
32918;SDS011;19280;42.646;21.150;2023-01-15T06:56:50;50.35;;;28.27;;
32918;SDS011;19280;42.646;21.150;2023-01-15T06:59:17;47.25;;;27.67;;
32918;SDS011;19280;42.646;21.150;2023-01-15T07:01:43;49.00;;;27.52;;
32918;SDS011;19280;42.646;21.150;2023-01-15T07:04:09;47.08;;;27.50;;
32918;SDS011;19280;42.646;21.150;2023-01-15T07:06:35;46.58;;;26.95;;
32918;SDS011;19280;42.646;21.150;2023-01-15T07:09:01;49.10;;;27.88;;
32918;SDS011;19280;42.646;21.150;2023-01-15T07:11:27;46.63;;;26.17;;
32918;SDS011;19280;42.646;21.150;2023-01-15T07:13:54;42.22;;;23.85;;
32918;SDS011;19280;42.646;21.150;2023-01-15T07:16:30;44.90;;;23.90;;
32918;SDS011;19280;42.646;21.150;2023-01-15T07:18:56;46.33;;;24.38;;
32918;SDS011;19280;42.646;21.150;2023-01-15T07:21:22;43.95;;;22.90;;
32918;SDS011;19280;42.646;21.150;2023-01-15T07:23:48;41.80;;;23.63;;
32918;SDS011;19280;42.646;21.150;2023-01-15T07:26:14;61.17;;;32.58;;
32918;SDS011;19280;42.646;21.150;2023-01-15T07:28:40;50.80;;;28.23;;
32918;SDS011;19280;42.646;21.150;2023-01-15T07:31:06;54.30;;;29.35;;
32918;SDS011;19280;42.646;21.150;2023-01-15T07:33:32;50.42;;;27.63;;
32918;SDS011;19280;42.646;21.150;2023-01-15T07:36:02;52.75;;;28.35;;
32918;SDS011;19280;42.646;21.150;2023-01-15T07:38:28;55.22;;;28.75;;
32918;SDS011;19280;42.646;21.150;2023-01-15T07:40:55;55.40;;;29.88;;
32918;SDS011;19280;42.646;21.150;2023-01-15T07:43:39;50.70;;;28.30;;
32918;SDS011;19280;42.646;21.150;2023-01-15T07:46:24;62.25;;;31.67;;
32918;SDS011;19280;42.646;21.150;2023-01-15T07:49:12;62.10;;;33.42;;
32918;SDS011;19280;42.646;21.150;2023-01-15T07:51:57;59.58;;;32.90;;
32918;SDS011;19280;42.646;21.150;2023-01-15T07:54:23;59.45;;;32.28;;
32918;SDS011;19280;42.646;21.150;2023-01-15T07:56:49;57.53;;;30.08;;
32918;SDS011;19280;42.646;21.150;2023-01-15T07:59:16;63.33;;;33.50;;
32918;SDS011;19280;42.646;21.150;2023-01-15T08:01:42;59.55;;;32.17;;
32918;SDS011;19280;42.646;21.150;2023-01-15T08:04:08;62.17;;;33.78;;
32918;SDS011;19280;42.646;21.150;2023-01-15T08:06:34;67.18;;;31.77;;
32918;SDS011;19280;42.646;21.150;2023-01-15T08:09:01;51.85;;;27.73;;
32918;SDS011;19280;42.646;21.150;2023-01-15T08:11:27;50.70;;;28.05;;
32918;SDS011;19280;42.646;21.150;2023-01-15T08:14:11;54.50;;;27.38;;
32918;SDS011;19280;42.646;21.150;2023-01-15T08:16:56;42.45;;;23.17;;
32918;SDS011;19280;42.646;21.150;2023-01-15T08:19:22;41.78;;;21.83;;
32918;SDS011;19280;42.646;21.150;2023-01-15T08:21:53;45.97;;;24.25;;
32918;SDS011;19280;42.646;21.150;2023-01-15T08:24:20;46.30;;;24.98;;
32918;SDS011;19280;42.646;21.150;2023-01-15T08:26:46;47.72;;;25.70;;
32918;SDS011;19280;42.646;21.150;2023-01-15T08:29:12;42.85;;;23.88;;
32918;SDS011;19280;42.646;21.150;2023-01-15T08:31:38;44.38;;;23.40;;
32918;SDS011;19280;42.646;21.150;2023-01-15T08:34:05;42.53;;;24.75;;
32918;SDS011;19280;42.646;21.150;2023-01-15T08:36:31;46.58;;;24.85;;
32918;SDS011;19280;42.646;21.150;2023-01-15T08:38:57;47.75;;;26.33;;
32918;SDS011;19280;42.646;21.150;2023-01-15T08:41:23;46.45;;;25.48;;
32918;SDS011;19280;42.646;21.150;2023-01-15T08:43:49;45.20;;;26.25;;
32918;SDS011;19280;42.646;21.150;2023-01-15T08:46:15;47.50;;;26.48;;
32918;SDS011;19280;42.646;21.150;2023-01-15T08:48:42;54.33;;;29.33;;
32918;SDS011;19280;42.646;21.150;2023-01-15T08:51:09;45.50;;;22.85;;
32918;SDS011;19280;42.646;21.150;2023-01-15T08:53:35;35.95;;;20.98;;
32918;SDS011;19280;42.646;21.150;2023-01-15T08:56:02;39.90;;;21.67;;
32918;SDS011;19280;42.646;21.150;2023-01-15T08:58:28;34.35;;;20.63;;
32918;SDS011;19280;42.646;21.150;2023-01-15T09:00:55;39.20;;;21.70;;
32918;SDS011;19280;42.646;21.150;2023-01-15T09:03:21;31.13;;;20.38;;
32918;SDS011;19280;42.646;21.150;2023-01-15T09:05:47;31.20;;;19.88;;
32918;SDS011;19280;42.646;21.150;2023-01-15T09:08:13;32.10;;;15.55;;
32918;SDS011;19280;42.646;21.150;2023-01-15T09:10:39;34.53;;;21.27;;
32918;SDS011;19280;42.646;21.150;2023-01-15T09:13:06;30.00;;;18.33;;
32918;SDS011;19280;42.646;21.150;2023-01-15T09:15:32;30.40;;;19.83;;
32918;SDS011;19280;42.646;21.150;2023-01-15T09:17:58;28.50;;;17.27;;
32918;SDS011;19280;42.646;21.150;2023-01-15T09:20:24;27.25;;;17.60;;
32918;SDS011;19280;42.646;21.150;2023-01-15T09:22:51;22.45;;;14.80;;
32918;SDS011;19280;42.646;21.150;2023-01-15T09:25:17;25.20;;;16.40;;
32918;SDS011;19280;42.646;21.150;2023-01-15T09:27:44;19.73;;;13.73;;
32918;SDS011;19280;42.646;21.150;2023-01-15T09:30:15;16.90;;;12.95;;
32918;SDS011;19280;42.646;21.150;2023-01-15T09:32:42;15.68;;;11.65;;
32918;SDS011;19280;42.646;21.150;2023-01-15T09:35:08;16.00;;;10.68;;
32918;SDS011;19280;42.646;21.150;2023-01-15T09:37:34;21.23;;;12.98;;
32918;SDS011;19280;42.646;21.150;2023-01-15T09:40:00;15.73;;;9.70;;
32918;SDS011;19280;42.646;21.150;2023-01-15T09:42:35;14.60;;;9.48;;
32918;SDS011;19280;42.646;21.150;2023-01-15T09:50:40;18.67;;;12.35;;
32918;SDS011;19280;42.646;21.150;2023-01-15T09:55:55;17.38;;;10.15;;
32918;SDS011;19280;42.646;21.150;2023-01-15T09:58:27;17.33;;;11.20;;
32918;SDS011;19280;42.646;21.150;2023-01-15T10:00:56;17.30;;;9.60;;
32918;SDS011;19280;42.646;21.150;2023-01-15T10:06:06;23.40;;;12.25;;
32918;SDS011;19280;42.646;21.150;2023-01-15T10:08:36;17.60;;;11.52;;
32918;SDS011;19280;42.646;21.150;2023-01-15T10:11:27;21.25;;;12.68;;
32918;SDS011;19280;42.646;21.150;2023-01-15T10:14:10;18.67;;;12.48;;
32918;SDS011;19280;42.646;21.150;2023-01-15T10:16:39;18.20;;;10.88;;
32918;SDS011;19280;42.646;21.150;2023-01-15T10:19:05;22.67;;;12.65;;
32918;SDS011;19280;42.646;21.150;2023-01-15T10:24:22;26.67;;;15.63;;
32918;SDS011;19280;42.646;21.150;2023-01-15T10:26:54;27.58;;;16.38;;
32918;SDS011;19280;42.646;21.150;2023-01-15T10:42:46;28.10;;;19.08;;
32918;SDS011;19280;42.646;21.150;2023-01-15T10:45:16;22.92;;;14.00;;
32918;SDS011;19280;42.646;21.150;2023-01-15T10:47:44;28.88;;;17.38;;
32918;SDS011;19280;42.646;21.150;2023-01-15T10:50:18;28.63;;;16.60;;
32918;SDS011;19280;42.646;21.150;2023-01-15T10:55:47;24.75;;;14.57;;
32918;SDS011;19280;42.646;21.150;2023-01-15T10:58:24;29.38;;;17.52;;
32918;SDS011;19280;42.646;21.150;2023-01-15T11:00:55;25.90;;;16.05;;
32918;SDS011;19280;42.646;21.150;2023-01-15T11:03:25;28.98;;;19.30;;
32918;SDS011;19280;42.646;21.150;2023-01-15T11:05:53;26.42;;;16.27;;
32918;SDS011;19280;42.646;21.150;2023-01-15T11:08:22;20.10;;;12.45;;
32918;SDS011;19280;42.646;21.150;2023-01-15T11:10:56;15.00;;;8.48;;
32918;SDS011;19280;42.646;21.150;2023-01-15T11:13:27;20.88;;;10.82;;
32918;SDS011;19280;42.646;21.150;2023-01-15T11:16:14;18.23;;;8.40;;
32918;SDS011;19280;42.646;21.150;2023-01-15T11:19:03;15.60;;;8.43;;
32918;SDS011;19280;42.646;21.150;2023-01-15T11:21:48;15.35;;;8.23;;
32918;SDS011;19280;42.646;21.150;2023-01-15T11:24:16;23.95;;;11.23;;
32918;SDS011;19280;42.646;21.150;2023-01-15T11:26:46;13.88;;;7.60;;
32918;SDS011;19280;42.646;21.150;2023-01-15T11:29:14;19.30;;;10.95;;
32918;SDS011;19280;42.646;21.150;2023-01-15T11:31:40;17.33;;;10.18;;
32918;SDS011;19280;42.646;21.150;2023-01-15T11:34:15;16.17;;;8.15;;
32918;SDS011;19280;42.646;21.150;2023-01-15T11:36:42;17.73;;;10.57;;
32918;SDS011;19280;42.646;21.150;2023-01-15T11:39:21;22.15;;;12.82;;
32918;SDS011;19280;42.646;21.150;2023-01-15T11:41:48;17.27;;;9.75;;
32918;SDS011;19280;42.646;21.150;2023-01-15T11:44:32;21.40;;;12.95;;
32918;SDS011;19280;42.646;21.150;2023-01-15T11:47:17;18.05;;;10.02;;
32918;SDS011;19280;42.646;21.150;2023-01-15T11:50:10;20.65;;;10.00;;
32918;SDS011;19280;42.646;21.150;2023-01-15T11:52:58;19.60;;;11.80;;
32918;SDS011;19280;42.646;21.150;2023-01-15T11:55:25;23.55;;;13.60;;
32918;SDS011;19280;42.646;21.150;2023-01-15T11:57:52;19.27;;;11.73;;
32918;SDS011;19280;42.646;21.150;2023-01-15T12:00:25;19.70;;;11.95;;
32918;SDS011;19280;42.646;21.150;2023-01-15T12:02:53;19.25;;;8.73;;
32918;SDS011;19280;42.646;21.150;2023-01-15T12:05:21;15.07;;;7.90;;
32918;SDS011;19280;42.646;21.150;2023-01-15T12:07:49;18.88;;;10.57;;
32918;SDS011;19280;42.646;21.150;2023-01-15T12:10:20;11.52;;;6.13;;
32918;SDS011;19280;42.646;21.150;2023-01-15T12:21:05;16.30;;;9.93;;
32918;SDS011;19280;42.646;21.150;2023-01-15T12:26:22;20.77;;;12.25;;
32918;SDS011;19280;42.646;21.150;2023-01-15T12:28:56;17.05;;;10.07;;
32918;SDS011;19280;42.646;21.150;2023-01-15T12:31:26;23.10;;;13.60;;
32918;SDS011;19280;42.646;21.150;2023-01-15T12:34:11;21.70;;;12.05;;
32918;SDS011;19280;42.646;21.150;2023-01-15T12:36:58;16.23;;;10.43;;
32918;SDS011;19280;42.646;21.150;2023-01-15T12:42:02;23.85;;;11.63;;
32918;SDS011;19280;42.646;21.150;2023-01-15T12:52:36;22.73;;;11.93;;
32918;SDS011;19280;42.646;21.150;2023-01-15T12:57:35;17.33;;;10.98;;
32918;SDS011;19280;42.646;21.150;2023-01-15T13:00:03;20.73;;;12.50;;
32918;SDS011;19280;42.646;21.150;2023-01-15T13:02:36;18.65;;;11.07;;
32918;SDS011;19280;42.646;21.150;2023-01-15T13:07:52;21.13;;;10.88;;
32918;SDS011;19280;42.646;21.150;2023-01-15T13:10:28;14.35;;;8.85;;
32918;SDS011;19280;42.646;21.150;2023-01-15T13:13:01;17.23;;;9.55;;
32918;SDS011;19280;42.646;21.150;2023-01-15T13:15:33;19.42;;;10.35;;
32918;SDS011;19280;42.646;21.150;2023-01-15T13:18:04;17.38;;;10.07;;
32918;SDS011;19280;42.646;21.150;2023-01-15T13:20:44;16.35;;;10.00;;
32918;SDS011;19280;42.646;21.150;2023-01-15T13:23:34;13.38;;;8.27;;
32918;SDS011;19280;42.646;21.150;2023-01-15T13:28:42;18.85;;;10.52;;
32918;SDS011;19280;42.646;21.150;2023-01-15T13:33:54;19.70;;;11.73;;
32918;SDS011;19280;42.646;21.150;2023-01-15T13:36:28;19.17;;;11.25;;
32918;SDS011;19280;42.646;21.150;2023-01-15T13:38:57;17.33;;;9.32;;
32918;SDS011;19280;42.646;21.150;2023-01-15T13:41:26;15.32;;;7.72;;
32918;SDS011;19280;42.646;21.150;2023-01-15T13:44:18;18.30;;;11.18;;
32918;SDS011;19280;42.646;21.150;2023-01-15T13:46:45;17.08;;;9.40;;
32918;SDS011;19280;42.646;21.150;2023-01-15T13:49:15;13.90;;;8.32;;
32918;SDS011;19280;42.646;21.150;2023-01-15T13:51:45;20.65;;;11.43;;
32918;SDS011;19280;42.646;21.150;2023-01-15T13:54:13;23.77;;;13.40;;
32918;SDS011;19280;42.646;21.150;2023-01-15T13:56:40;20.23;;;12.82;;
32918;SDS011;19280;42.646;21.150;2023-01-15T13:59:28;19.92;;;11.82;;
32918;SDS011;19280;42.646;21.150;2023-01-15T14:01:53;19.85;;;11.68;;
32918;SDS011;19280;42.646;21.150;2023-01-15T14:04:37;24.77;;;12.73;;
32918;SDS011;19280;42.646;21.150;2023-01-15T14:07:03;41.95;;;20.70;;
32918;SDS011;19280;42.646;21.150;2023-01-15T14:09:42;26.10;;;12.90;;
32918;SDS011;19280;42.646;21.150;2023-01-15T14:12:12;28.92;;;15.98;;
32918;SDS011;19280;42.646;21.150;2023-01-15T14:33:07;30.00;;;14.18;;
32918;SDS011;19280;42.646;21.150;2023-01-15T14:35:38;28.52;;;12.48;;
32918;SDS011;19280;42.646;21.150;2023-01-15T14:38:06;17.77;;;9.10;;
32918;SDS011;19280;42.646;21.150;2023-01-15T14:40:33;21.38;;;11.50;;
32918;SDS011;19280;42.646;21.150;2023-01-15T14:43:00;22.00;;;11.38;;
32918;SDS011;19280;42.646;21.150;2023-01-15T14:45:37;21.63;;;12.73;;
32918;SDS011;19280;42.646;21.150;2023-01-15T14:53:04;23.63;;;14.70;;
32918;SDS011;19280;42.646;21.150;2023-01-15T14:55:31;22.85;;;12.85;;
32918;SDS011;19280;42.646;21.150;2023-01-15T14:58:00;21.10;;;11.65;;
32918;SDS011;19280;42.646;21.150;2023-01-15T15:00:33;27.42;;;14.57;;
32918;SDS011;19280;42.646;21.150;2023-01-15T15:03:00;26.17;;;13.23;;
32918;SDS011;19280;42.646;21.150;2023-01-15T15:05:28;27.27;;;12.32;;
32918;SDS011;19280;42.646;21.150;2023-01-15T15:07:56;28.85;;;14.27;;
32918;SDS011;19280;42.646;21.150;2023-01-15T15:10:26;22.20;;;11.63;;
32918;SDS011;19280;42.646;21.150;2023-01-15T15:18:14;26.88;;;13.52;;
32918;SDS011;19280;42.646;21.150;2023-01-15T15:23:14;23.80;;;13.60;;
32918;SDS011;19280;42.646;21.150;2023-01-15T15:25:40;25.98;;;11.40;;
32918;SDS011;19280;42.646;21.150;2023-01-15T15:28:10;31.70;;;14.88;;
32918;SDS011;19280;42.646;21.150;2023-01-15T15:30:41;36.10;;;18.70;;
32918;SDS011;19280;42.646;21.150;2023-01-15T15:33:09;219.38;;;94.72;;
32918;SDS011;19280;42.646;21.150;2023-01-15T15:35:42;99.82;;;67.90;;
32918;SDS011;19280;42.646;21.150;2023-01-15T15:38:14;221.55;;;137.40;;
32918;SDS011;19280;42.646;21.150;2023-01-15T15:40:43;57.35;;;31.65;;
32918;SDS011;19280;42.646;21.150;2023-01-15T15:43:14;55.22;;;28.15;;
32918;SDS011;19280;42.646;21.150;2023-01-15T15:46:00;44.22;;;26.25;;
32918;SDS011;19280;42.646;21.150;2023-01-15T15:48:50;75.32;;;44.63;;
32918;SDS011;19280;42.646;21.150;2023-01-15T15:53:46;61.08;;;34.00;;
32918;SDS011;19280;42.646;21.150;2023-01-15T15:56:12;37.83;;;19.85;;
32918;SDS011;19280;42.646;21.150;2023-01-15T15:58:38;84.95;;;42.40;;
32918;SDS011;19280;42.646;21.150;2023-01-15T16:01:04;240.52;;;109.53;;
32918;SDS011;19280;42.646;21.150;2023-01-15T16:03:30;111.47;;;56.28;;
32918;SDS011;19280;42.646;21.150;2023-01-15T16:05:57;65.95;;;33.55;;
32918;SDS011;19280;42.646;21.150;2023-01-15T16:08:25;201.13;;;101.80;;
32918;SDS011;19280;42.646;21.150;2023-01-15T16:10:52;78.95;;;39.72;;
32918;SDS011;19280;42.646;21.150;2023-01-15T16:13:32;64.20;;;34.63;;
32918;SDS011;19280;42.646;21.150;2023-01-15T16:15:59;53.22;;;29.55;;
32918;SDS011;19280;42.646;21.150;2023-01-15T16:18:27;73.55;;;38.17;;